createdAt,value
2023-05-03T00:01:19.023Z,8.27
2023-05-03T00:03:45.993Z,10.87
2023-05-03T00:06:16.283Z,9.57
2023-05-03T00:08:42.979Z,9.93
2023-05-03T00:11:09.903Z,9.80
2023-05-03T00:13:36.751Z,11.90
2023-05-03T00:16:03.622Z,11.30
2023-05-03T00:18:30.706Z,8.00
2023-05-03T00:20:59.455Z,9.77
2023-05-03T00:23:26.767Z,9.43
2023-05-03T00:25:57.437Z,11.23
2023-05-03T00:28:24.963Z,7.23
2023-05-03T00:30:52.586Z,11.20
2023-05-03T00:33:19.213Z,9.00
2023-05-03T00:35:45.797Z,13.07
2023-05-03T00:38:14.328Z,7.77
2023-05-03T00:40:41.044Z,7.80
2023-05-03T00:43:07.659Z,8.70
2023-05-03T00:45:34.671Z,8.33
2023-05-03T00:48:01.617Z,5.70
2023-05-03T00:50:28.567Z,7.80
2023-05-03T00:52:55.384Z,8.43
2023-05-03T00:55:22.208Z,8.53
2023-05-03T00:57:48.652Z,6.10
2023-05-03T01:00:15.593Z,8.70
2023-05-03T01:02:42.237Z,5.97
2023-05-03T01:05:09.095Z,9.77
2023-05-03T01:07:41.331Z,7.67
2023-05-03T01:10:21.629Z,9.83
2023-05-03T01:13:23.402Z,8.47
2023-05-03T01:16:11.866Z,8.60
2023-05-03T01:18:40.234Z,7.87
2023-05-03T01:21:09.185Z,8.63
2023-05-03T01:23:57.311Z,7.97
2023-05-03T01:26:26.029Z,5.30
2023-05-03T01:28:52.584Z,8.37
2023-05-03T01:31:26.711Z,8.20
2023-05-03T01:34:08.110Z,5.43
2023-05-03T01:36:35.492Z,8.03
2023-05-03T01:39:14.261Z,5.73
2023-05-03T01:41:42.069Z,6.10
2023-05-03T01:44:09.855Z,7.67
2023-05-03T01:46:42.755Z,10.17
2023-05-03T01:49:09.284Z,5.67
2023-05-03T01:51:35.853Z,5.20
2023-05-03T01:54:02.829Z,13.57
2023-05-03T01:56:30.698Z,5.70
2023-05-03T01:58:57.246Z,7.43
2023-05-03T02:01:23.745Z,8.27
2023-05-03T02:03:50.267Z,4.30
2023-05-03T02:06:16.832Z,6.47
2023-05-03T02:08:43.281Z,9.33
2023-05-03T02:11:09.701Z,7.63
2023-05-03T02:13:37.887Z,6.40
2023-05-03T02:16:04.750Z,8.50
2023-05-03T02:18:31.500Z,10.80
2023-05-03T02:20:58.020Z,6.53
2023-05-03T02:23:24.547Z,7.60
2023-05-03T02:25:51.136Z,6.97
2023-05-03T02:28:17.582Z,8.97
2023-05-03T02:30:44.239Z,10.13
2023-05-03T02:33:10.929Z,9.07
2023-05-03T02:35:37.445Z,6.73
2023-05-03T02:38:04.231Z,9.37
2023-05-03T02:40:30.703Z,6.53
2023-05-03T02:42:57.194Z,10.47
2023-05-03T02:45:24.315Z,8.47
2023-05-03T02:47:50.990Z,9.60
2023-05-03T02:50:17.525Z,6.10
2023-05-03T02:52:44.231Z,12.33
2023-05-03T02:55:10.672Z,13.23
2023-05-03T02:57:37.116Z,7.47
2023-05-03T03:00:05.870Z,7.87
2023-05-03T03:02:33.112Z,5.80
2023-05-03T03:04:59.618Z,6.87
2023-05-03T03:07:26.274Z,7.10
2023-05-03T03:09:52.735Z,7.23
2023-05-03T03:12:19.457Z,9.40
2023-05-03T03:14:45.994Z,7.17
2023-05-03T03:17:13.210Z,8.47
2023-05-03T03:19:39.823Z,10.40
2023-05-03T03:22:06.724Z,8.43
2023-05-03T03:24:33.447Z,6.20
2023-05-03T03:27:00.033Z,10.60
2023-05-03T03:29:27.960Z,9.47
2023-05-03T03:31:54.747Z,8.80
2023-05-03T03:34:21.328Z,10.30
2023-05-03T03:36:48.610Z,8.87
2023-05-03T03:39:15.329Z,6.00
2023-05-03T03:41:42.457Z,11.20
2023-05-03T03:44:09.114Z,9.37
2023-05-03T03:46:35.844Z,8.17
2023-05-03T03:49:02.522Z,8.37
2023-05-03T03:51:29.212Z,11.63
2023-05-03T03:53:55.853Z,5.23
2023-05-03T03:56:23.785Z,7.77
2023-05-03T03:58:50.434Z,8.17
2023-05-03T04:01:17.013Z,6.43
2023-05-03T04:03:47.382Z,9.53
2023-05-03T04:06:14.140Z,8.57
2023-05-03T04:08:40.978Z,7.27
2023-05-03T04:11:12.533Z,9.43
2023-05-03T04:13:39.369Z,5.93
2023-05-03T04:16:07.109Z,7.83
2023-05-03T04:18:33.655Z,8.37
2023-05-03T04:21:00.175Z,5.27
2023-05-03T04:23:26.831Z,6.77
2023-05-03T04:25:53.367Z,6.00
2023-05-03T04:28:20.561Z,6.30
2023-05-03T04:30:47.354Z,6.33
2023-05-03T04:33:14.032Z,5.93
2023-05-03T04:35:41.448Z,8.70
2023-05-03T04:38:09.008Z,6.07
2023-05-03T04:40:35.898Z,4.37
2023-05-03T04:43:02.429Z,4.87
2023-05-03T04:45:28.994Z,4.83
2023-05-03T04:47:55.726Z,10.17
2023-05-03T04:50:22.186Z,4.80
2023-05-03T04:52:48.697Z,5.37
2023-05-03T04:55:15.390Z,4.07
2023-05-03T04:57:42.441Z,7.37
2023-05-03T05:00:12.658Z,11.33
2023-05-03T05:02:39.260Z,4.40
2023-05-03T05:05:06.292Z,6.40
2023-05-03T05:07:32.871Z,6.30
2023-05-03T05:09:59.396Z,6.73
2023-05-03T05:12:26.148Z,5.73
2023-05-03T05:14:52.668Z,4.37
2023-05-03T05:17:19.354Z,9.50
2023-05-03T05:19:45.890Z,7.00
2023-05-03T05:22:12.447Z,4.73
2023-05-03T05:24:39.021Z,5.90
2023-05-03T05:27:06.685Z,3.57
2023-05-03T05:29:33.398Z,5.07
2023-05-03T05:32:01.862Z,6.67
2023-05-03T05:34:29.816Z,5.37
2023-05-03T05:36:58.849Z,4.73
2023-05-03T05:39:25.952Z,4.27
2023-05-03T05:41:52.498Z,2.53
2023-05-03T05:44:18.956Z,4.67
2023-05-03T05:46:46.539Z,4.23
2023-05-03T05:49:13.338Z,5.13
2023-05-03T05:51:40.060Z,5.00
2023-05-03T05:54:07.752Z,3.83
2023-05-03T05:56:34.398Z,2.80
2023-05-03T05:59:01.093Z,3.90
2023-05-03T06:01:27.791Z,4.23
2023-05-03T06:03:55.519Z,7.60
2023-05-03T06:06:22.159Z,5.50
2023-05-03T06:08:51.374Z,3.50
2023-05-03T06:11:18.237Z,2.73
2023-05-03T06:13:44.868Z,4.23
2023-05-03T06:16:11.867Z,6.17
2023-05-03T06:18:39.081Z,5.77
2023-05-03T06:21:05.830Z,4.53
2023-05-03T06:23:33.433Z,2.97
2023-05-03T06:25:59.965Z,3.80
2023-05-03T06:28:26.452Z,3.10
2023-05-03T06:30:53.010Z,1.57
2023-05-03T06:33:19.596Z,3.30
2023-05-03T06:35:47.213Z,3.20
2023-05-03T06:38:13.799Z,3.47
2023-05-03T06:40:41.639Z,3.07
2023-05-03T06:43:08.186Z,5.07
2023-05-03T06:45:34.725Z,3.00
2023-05-03T06:48:01.440Z,3.47
2023-05-03T06:50:28.116Z,3.17
2023-05-03T06:52:54.737Z,3.50
2023-05-03T06:55:21.402Z,2.27
2023-05-03T06:57:48.389Z,3.53
2023-05-03T07:00:15.964Z,3.07
2023-05-03T07:02:42.899Z,6.20
2023-05-03T07:05:09.928Z,5.03
2023-05-03T07:07:36.738Z,4.60
2023-05-03T07:10:03.940Z,2.93
2023-05-03T07:12:30.832Z,4.40
2023-05-03T07:14:57.830Z,2.23
2023-05-03T07:17:24.862Z,5.30
2023-05-03T07:19:51.794Z,16.53
2023-05-03T07:22:20.700Z,2.53
2023-05-03T07:24:47.409Z,2.53
2023-05-03T07:27:15.500Z,2.90
2023-05-03T07:29:42.041Z,2.90
2023-05-03T07:32:09.031Z,4.93
2023-05-03T07:34:35.559Z,5.00
2023-05-03T07:37:02.038Z,3.17
2023-05-03T07:39:28.595Z,4.30
2023-05-03T07:41:55.294Z,1.80
2023-05-03T07:44:22.456Z,7.27
2023-05-03T07:46:49.167Z,5.20
2023-05-03T07:49:16.203Z,4.93
2023-05-03T07:51:42.870Z,4.73
2023-05-03T07:54:09.497Z,3.80
2023-05-03T07:56:36.412Z,3.47
2023-05-03T07:59:09.086Z,3.37
2023-05-03T08:01:37.196Z,5.80
2023-05-03T08:04:04.685Z,4.40
2023-05-03T08:06:31.872Z,3.13
2023-05-03T08:08:58.804Z,3.57
2023-05-03T08:11:27.235Z,3.00
2023-05-03T08:13:53.753Z,3.43
2023-05-03T08:16:20.514Z,5.93
2023-05-03T08:18:47.328Z,3.73
2023-05-03T08:21:15.064Z,5.00
2023-05-03T08:23:42.464Z,7.77
2023-05-03T08:26:10.030Z,5.37
2023-05-03T08:28:36.590Z,4.03
2023-05-03T08:31:06.768Z,6.10
2023-05-03T08:33:33.490Z,5.17
2023-05-03T08:36:00.179Z,6.13
2023-05-03T08:38:27.302Z,3.20
2023-05-03T08:40:55.730Z,5.37
2023-05-03T08:43:24.063Z,6.17
2023-05-03T08:45:51.499Z,4.77
2023-05-03T08:48:18.447Z,4.37
2023-05-03T08:50:45.043Z,4.57
2023-05-03T08:53:12.170Z,6.60
2023-05-03T08:55:38.951Z,5.07
2023-05-03T08:58:12.462Z,6.50
2023-05-03T09:00:39.149Z,6.33
2023-05-03T09:03:07.547Z,6.10
2023-05-03T09:05:35.766Z,5.77
2023-05-03T09:08:06.540Z,5.13
2023-05-03T09:10:34.434Z,5.87
2023-05-03T09:13:02.371Z,3.93
2023-05-03T09:15:31.888Z,5.77
2023-05-03T09:18:18.220Z,2.20
2023-05-03T09:20:56.028Z,4.67
2023-05-03T09:23:26.686Z,3.63
2023-05-03T09:25:53.342Z,2.73
2023-05-03T09:28:20.874Z,3.70
2023-05-03T09:30:48.361Z,3.13
2023-05-03T09:33:22.149Z,2.93
2023-05-03T09:36:03.376Z,4.10
2023-05-03T09:38:32.385Z,4.10
2023-05-03T09:40:59.135Z,2.97
2023-05-03T09:43:25.779Z,4.43
2023-05-03T09:45:52.459Z,2.33
2023-05-03T09:48:23.476Z,3.20
2023-05-03T09:50:50.988Z,3.40
2023-05-03T09:53:18.984Z,2.60
2023-05-03T09:55:46.994Z,3.20
2023-05-03T09:58:13.851Z,3.50
2023-05-03T10:00:42.659Z,2.87
2023-05-03T10:03:15.396Z,2.10
2023-05-03T10:05:49.066Z,4.87
2023-05-03T10:08:28.352Z,3.77
2023-05-03T10:10:55.348Z,9.27
2023-05-03T10:13:22.851Z,5.87
2023-05-03T10:15:53.805Z,3.53
2023-05-03T10:18:21.270Z,2.07
2023-05-03T10:21:01.943Z,2.40
2023-05-03T10:23:28.596Z,3.87
2023-05-03T10:26:13.335Z,2.73
2023-05-03T10:28:40.097Z,6.73
2023-05-03T10:31:06.652Z,5.73
2023-05-03T10:33:36.689Z,5.87
2023-05-03T10:36:07.584Z,5.40
2023-05-03T10:38:34.092Z,4.07
2023-05-03T10:41:03.626Z,6.60
2023-05-03T10:43:33.589Z,3.43
2023-05-03T10:46:03.647Z,6.63
2023-05-03T10:48:34.695Z,2.80
2023-05-03T10:51:29.011Z,6.63
2023-05-03T10:53:55.906Z,3.13
2023-05-03T10:56:22.752Z,2.90
2023-05-03T10:58:56.637Z,4.87
2023-05-03T11:01:24.671Z,2.23
2023-05-03T11:04:10.181Z,3.50
2023-05-03T11:06:41.371Z,5.90
2023-05-03T11:09:10.013Z,2.63
2023-05-03T11:11:39.496Z,2.80
2023-05-03T11:14:07.468Z,3.43
2023-05-03T11:16:36.560Z,4.87
2023-05-03T11:19:03.857Z,2.87
2023-05-03T11:21:31.411Z,5.03
2023-05-03T11:23:59.209Z,7.17
2023-05-03T11:26:26.698Z,3.07
2023-05-03T11:28:53.994Z,3.03
2023-05-03T11:31:21.110Z,3.50
2023-05-03T11:33:49.468Z,3.00
2023-05-03T11:36:16.283Z,3.63
2023-05-03T11:38:42.881Z,4.27
2023-05-03T11:41:13.337Z,3.33
2023-05-03T11:43:49.449Z,3.50
2023-05-03T11:46:22.202Z,2.43
2023-05-03T11:48:48.931Z,7.37
2023-05-03T11:51:16.277Z,2.53
2023-05-03T11:53:44.067Z,3.23
2023-05-03T11:56:15.264Z,3.50
2023-05-03T11:58:58.637Z,4.37
2023-05-03T12:01:26.922Z,4.70
2023-05-03T12:03:57.653Z,2.60
2023-05-03T12:06:25.858Z,2.83
2023-05-03T12:08:54.699Z,5.90
2023-05-03T12:11:23.332Z,7.03
2023-05-03T12:14:02.813Z,2.70
2023-05-03T12:16:46.706Z,5.23
2023-05-03T12:19:24.286Z,5.37
2023-05-03T12:22:04.811Z,3.57
2023-05-03T12:24:39.398Z,4.13
2023-05-03T12:27:08.666Z,4.40
2023-05-03T12:29:35.675Z,5.90
2023-05-03T12:32:03.692Z,3.10
2023-05-03T12:34:35.587Z,3.33
2023-05-03T12:37:05.651Z,2.83
2023-05-03T12:39:33.700Z,3.73
2023-05-03T12:44:35.105Z,3.97
2023-05-03T12:47:02.963Z,3.30
2023-05-03T12:49:30.182Z,2.73
2023-05-03T12:54:33.376Z,4.70
2023-05-03T12:57:08.225Z,4.37
2023-05-03T12:59:41.781Z,3.03
2023-05-03T13:04:57.075Z,3.47
2023-05-03T13:07:29.532Z,3.47
2023-05-03T13:12:27.463Z,5.03
2023-05-03T13:14:54.938Z,5.70
2023-05-03T13:17:22.823Z,6.70
2023-05-03T13:19:51.174Z,7.03
2023-05-03T13:22:17.986Z,4.20
2023-05-03T13:24:46.048Z,3.67
2023-05-03T13:27:12.640Z,6.13
2023-05-03T13:29:39.892Z,4.17
2023-05-03T13:32:07.057Z,3.17
2023-05-03T13:34:34.174Z,3.97
2023-05-03T13:37:01.789Z,3.37
2023-05-03T13:39:28.472Z,1.73
2023-05-03T13:41:54.934Z,4.80
2023-05-03T13:44:25.159Z,2.63
2023-05-03T13:46:56.300Z,3.90
2023-05-03T13:49:22.783Z,4.83
2023-05-03T13:51:49.528Z,4.00
2023-05-03T13:54:16.230Z,6.43
2023-05-03T13:56:43.079Z,9.87
2023-05-03T13:59:11.928Z,3.10
2023-05-03T14:01:38.788Z,3.13
2023-05-03T14:04:05.749Z,2.77
2023-05-03T14:06:33.546Z,3.53
2023-05-03T14:09:01.619Z,2.80
2023-05-03T14:11:28.639Z,5.13
2023-05-03T14:13:57.326Z,6.20
2023-05-03T14:16:36.432Z,2.57
2023-05-03T14:19:07.910Z,4.10
2023-05-03T14:21:34.718Z,2.57
2023-05-03T14:24:01.720Z,5.23
2023-05-03T14:26:29.564Z,2.63
2023-05-03T14:28:56.337Z,6.77
2023-05-03T14:31:22.983Z,5.00
2023-05-03T14:33:49.545Z,3.57
2023-05-03T14:36:16.223Z,7.70
2023-05-03T14:38:42.696Z,3.10
2023-05-03T14:41:09.431Z,3.93
2023-05-03T14:43:36.112Z,2.80
2023-05-03T14:46:02.689Z,3.80
2023-05-03T14:48:29.222Z,4.73
2023-05-03T14:50:56.446Z,2.67
2023-05-03T14:53:23.431Z,4.10
2023-05-03T14:55:50.206Z,3.07
2023-05-03T14:58:17.107Z,2.53
2023-05-03T15:00:43.859Z,3.27
2023-05-03T15:03:12.305Z,3.00
2023-05-03T15:05:45.822Z,3.47
2023-05-03T15:08:15.359Z,4.40
2023-05-03T15:10:44.369Z,3.00
2023-05-03T15:13:11.979Z,5.40
2023-05-03T15:15:39.806Z,3.90
2023-05-03T15:18:07.995Z,3.40
2023-05-03T15:20:35.085Z,4.23
2023-05-03T15:23:03.220Z,4.77
2023-05-03T15:25:30.040Z,3.33
2023-05-03T15:27:56.724Z,4.27
2023-05-03T15:30:23.354Z,4.47
2023-05-03T15:32:51.276Z,2.80
2023-05-03T15:35:18.223Z,4.97
2023-05-03T15:37:45.149Z,3.30
2023-05-03T15:40:13.287Z,4.27
2023-05-03T15:42:39.941Z,3.53
2023-05-03T15:45:08.699Z,3.57
2023-05-03T15:47:35.677Z,4.67
2023-05-03T15:50:02.979Z,2.53
2023-05-03T15:52:29.936Z,3.73
2023-05-03T15:54:56.534Z,3.47
2023-05-03T15:57:23.645Z,2.73
2023-05-03T15:59:50.337Z,4.03
2023-05-03T16:02:17.033Z,3.90
2023-05-03T16:04:43.582Z,2.23
2023-05-03T16:07:10.133Z,2.67
2023-05-03T16:09:36.733Z,4.57
2023-05-03T16:12:03.695Z,6.23
2023-05-03T16:14:30.534Z,3.97
2023-05-03T16:16:57.230Z,5.43
2023-05-03T16:19:23.951Z,1.63
2023-05-03T16:21:50.664Z,2.73
2023-05-03T16:24:18.576Z,2.57
2023-05-03T16:26:45.386Z,4.57
2023-05-03T16:29:11.941Z,6.27
2023-05-03T16:31:38.451Z,5.50
2023-05-03T16:34:05.122Z,4.90
2023-05-03T16:36:33.125Z,5.93
2023-05-03T16:38:59.735Z,4.47
2023-05-03T16:41:26.460Z,3.57
2023-05-03T16:43:52.968Z,1.23
2023-05-03T16:46:20.221Z,2.63
2023-05-03T16:48:48.132Z,1.53
2023-05-03T16:51:14.812Z,4.43
2023-05-03T16:53:41.521Z,3.77
2023-05-03T16:56:08.193Z,2.13
2023-05-03T16:58:34.904Z,6.50
2023-05-03T17:01:01.491Z,2.30
2023-05-03T17:03:28.261Z,5.13
2023-05-03T17:05:54.979Z,3.00
2023-05-03T17:08:21.751Z,3.03
2023-05-03T17:10:48.475Z,3.97
2023-05-03T17:13:16.546Z,2.93
2023-05-03T17:15:43.320Z,5.13
2023-05-03T17:18:10.122Z,4.53
2023-05-03T17:20:37.084Z,3.47
2023-05-03T17:23:03.629Z,3.53
2023-05-03T17:25:30.186Z,1.63
2023-05-03T17:27:57.117Z,3.07
2023-05-03T17:30:23.653Z,2.93
2023-05-03T17:32:50.238Z,5.50
2023-05-03T17:35:17.099Z,4.60
2023-05-03T17:37:44.883Z,4.93
2023-05-03T17:40:12.245Z,3.17
2023-05-03T17:42:39.124Z,2.73
2023-05-03T17:45:06.635Z,1.97
2023-05-03T17:47:33.154Z,3.80
2023-05-03T17:49:59.792Z,3.47
2023-05-03T17:52:26.356Z,3.93
2023-05-03T17:54:53.010Z,2.33
2023-05-03T17:57:22.120Z,4.90
2023-05-03T17:59:48.707Z,3.60
2023-05-03T18:02:15.319Z,5.50
2023-05-03T18:04:41.892Z,4.10
2023-05-03T18:07:08.410Z,5.33
2023-05-03T18:09:34.971Z,4.17
2023-05-03T18:12:02.003Z,2.53
2023-05-03T18:14:28.531Z,3.73
2023-05-03T18:16:55.447Z,5.93
2023-05-03T18:19:22.696Z,2.67
2023-05-03T18:21:49.237Z,3.67
2023-05-03T18:24:16.301Z,4.13
2023-05-03T18:26:43.094Z,5.53
2023-05-03T18:29:10.008Z,6.70
2023-05-03T18:31:36.744Z,5.53
2023-05-03T18:34:03.650Z,4.03
2023-05-03T18:36:31.215Z,3.63
2023-05-03T18:38:57.738Z,5.13
2023-05-03T18:41:24.523Z,5.03
2023-05-03T18:43:52.006Z,7.77
2023-05-03T18:46:19.320Z,10.23
2023-05-03T18:48:47.552Z,6.50
2023-05-03T18:51:14.312Z,5.57
2023-05-03T18:53:40.882Z,5.93
2023-05-03T18:56:07.702Z,4.10
2023-05-03T18:58:34.224Z,9.73
2023-05-03T19:01:00.999Z,6.87
2023-05-03T19:03:29.512Z,5.37
2023-05-03T19:06:00.061Z,3.90
2023-05-03T19:08:26.629Z,8.93
2023-05-03T19:10:53.365Z,5.23
2023-05-03T19:13:19.938Z,9.63
2023-05-03T19:15:47.014Z,7.27
2023-05-03T19:18:16.017Z,6.10
2023-05-03T19:20:43.669Z,8.13
2023-05-03T19:23:10.216Z,7.20
2023-05-03T19:25:36.956Z,7.60
2023-05-03T19:28:05.235Z,7.13
2023-05-03T19:30:31.849Z,8.03
2023-05-03T19:32:58.658Z,6.70
2023-05-03T19:35:25.274Z,4.80
2023-05-03T19:37:51.880Z,10.27
2023-05-03T19:40:18.690Z,7.67
2023-05-03T19:42:45.470Z,5.23
2023-05-03T19:45:12.364Z,11.37
2023-05-03T19:47:39.200Z,8.80
2023-05-03T19:50:06.736Z,9.40
2023-05-03T19:52:33.382Z,5.13
2023-05-03T19:55:00.169Z,5.37
2023-05-03T19:57:26.872Z,4.63
2023-05-03T19:59:53.456Z,6.20
2023-05-03T20:02:22.520Z,8.07
2023-05-03T20:04:50.617Z,6.20
2023-05-03T20:07:17.077Z,8.53
2023-05-03T20:09:43.652Z,4.97
2023-05-03T20:12:10.956Z,8.27
2023-05-03T20:14:38.252Z,7.73
2023-05-03T20:17:06.101Z,9.60
2023-05-03T20:19:32.574Z,10.63
2023-05-03T20:21:59.019Z,13.43
2023-05-03T20:24:25.670Z,9.57
2023-05-03T20:26:53.198Z,10.93
2023-05-03T20:29:19.757Z,13.13
2023-05-03T20:31:48.415Z,22.03
2023-05-03T20:34:15.153Z,12.50
2023-05-03T20:36:41.707Z,10.03
2023-05-03T20:39:09.604Z,9.20
2023-05-03T20:41:36.098Z,7.03
2023-05-03T20:44:02.576Z,10.50
2023-05-03T20:46:29.251Z,12.60
2023-05-03T20:48:56.048Z,9.73
2023-05-03T20:51:23.204Z,10.13
2023-05-03T20:53:49.982Z,9.60
2023-05-03T20:56:16.646Z,12.60
2023-05-03T20:58:43.272Z,21.13
2023-05-03T21:01:10.266Z,14.13
2023-05-03T21:03:37.026Z,7.87
2023-05-03T21:06:05.623Z,10.97
2023-05-03T21:08:32.839Z,12.10
2023-05-03T21:10:59.549Z,8.33
2023-05-03T21:13:26.113Z,12.13
2023-05-03T21:15:52.624Z,10.37
2023-05-03T21:18:19.454Z,11.33
2023-05-03T21:20:46.607Z,9.30
2023-05-03T21:23:13.362Z,12.07
2023-05-03T21:25:39.856Z,12.43
2023-05-03T21:28:06.308Z,7.93
2023-05-03T21:30:32.972Z,11.77
2023-05-03T21:32:59.441Z,11.73
2023-05-03T21:35:25.974Z,14.20
2023-05-03T21:37:52.524Z,7.50
2023-05-03T21:40:21.331Z,12.50
2023-05-03T21:42:49.969Z,10.30
2023-05-03T21:45:16.812Z,7.33
2023-05-03T21:47:43.358Z,10.37
2023-05-03T21:50:10.017Z,11.70
2023-05-03T21:52:36.896Z,10.30
2023-05-03T21:55:03.908Z,7.73
2023-05-03T21:57:32.489Z,11.47
2023-05-03T21:59:59.781Z,6.57
2023-05-03T22:02:26.356Z,9.53
2023-05-03T22:04:52.972Z,10.33
2023-05-03T22:07:19.649Z,13.43
2023-05-03T22:09:48.917Z,7.43
2023-05-03T22:14:45.825Z,8.37
2023-05-03T22:17:12.347Z,10.20
2023-05-03T22:19:38.882Z,8.43
2023-05-03T22:22:05.474Z,12.60
2023-05-03T22:24:31.984Z,12.93
2023-05-03T22:26:59.179Z,14.13
2023-05-03T22:29:26.438Z,10.33
2023-05-03T22:31:53.087Z,12.47
2023-05-03T22:34:19.602Z,8.63
2023-05-03T22:36:46.166Z,9.27
2023-05-03T22:39:12.638Z,9.70
2023-05-03T22:41:39.118Z,10.60
2023-05-03T22:44:05.742Z,11.63
2023-05-03T22:46:32.196Z,10.87
2023-05-03T22:48:58.704Z,11.07
2023-05-03T22:51:25.373Z,9.10
2023-05-03T22:53:51.903Z,9.33
2023-05-03T22:56:18.437Z,11.97
2023-05-03T22:58:46.808Z,8.43
2023-05-03T23:01:13.634Z,12.90
2023-05-03T23:03:41.124Z,8.67
2023-05-03T23:06:07.967Z,10.70
2023-05-03T23:08:34.523Z,12.07
2023-05-03T23:11:00.978Z,8.00
2023-05-03T23:13:27.467Z,12.33
2023-05-03T23:15:54.845Z,20.60
2023-05-03T23:18:21.489Z,15.93
2023-05-03T23:20:48.726Z,11.00
2023-05-03T23:23:16.193Z,9.50
2023-05-03T23:25:42.930Z,14.77
2023-05-03T23:28:09.670Z,13.60
2023-05-03T23:30:36.999Z,11.70
2023-05-03T23:33:04.206Z,11.97
2023-05-03T23:35:31.106Z,15.37
2023-05-03T23:37:57.702Z,9.33
2023-05-03T23:40:24.311Z,11.37
2023-05-03T23:42:51.061Z,11.93
2023-05-03T23:45:17.568Z,13.03
2023-05-03T23:47:44.129Z,16.17
2023-05-03T23:50:10.904Z,12.33
2023-05-03T23:52:37.387Z,9.57
2023-05-03T23:55:05.076Z,14.53
2023-05-03T23:57:31.535Z,9.57
2023-05-03T23:59:58.066Z,13.17
